createdAt,value
2023-11-16T00:00:34.416Z,0.40
2023-11-16T00:03:03.563Z,0.35
2023-11-16T00:05:30.729Z,0.60
2023-11-16T00:07:59.407Z,0.60
2023-11-16T00:10:26.385Z,0.38
2023-11-16T00:12:55.918Z,0.40
2023-11-16T00:15:23.245Z,0.75
2023-11-16T00:17:50.178Z,0.40
2023-11-16T00:20:17.600Z,0.38
2023-11-16T00:22:44.342Z,0.55
2023-11-16T00:25:11.444Z,0.55
2023-11-16T00:27:38.747Z,0.40
2023-11-16T00:30:06.495Z,0.30
2023-11-16T00:32:33.837Z,0.40
2023-11-16T00:35:01.729Z,0.50
2023-11-16T00:37:28.814Z,0.77
2023-11-16T00:39:59.501Z,0.52
2023-11-16T00:42:29.780Z,0.30
2023-11-16T00:44:57.952Z,0.47
2023-11-16T00:47:25.982Z,0.60
2023-11-16T00:49:52.981Z,0.35
2023-11-16T00:52:21.928Z,0.50
2023-11-16T00:54:51.813Z,0.60
2023-11-16T00:57:21.899Z,0.50
2023-11-16T00:59:49.046Z,0.50
2023-11-16T01:02:16.390Z,0.45
2023-11-16T01:04:43.318Z,0.35
2023-11-16T01:07:11.896Z,0.43
2023-11-16T01:09:39.899Z,0.52
2023-11-16T01:12:15.876Z,0.38
2023-11-16T01:14:44.361Z,0.50
2023-11-16T01:17:20.638Z,0.55
2023-11-16T01:19:49.136Z,0.50
2023-11-16T01:22:17.953Z,0.65
2023-11-16T01:24:47.962Z,0.43
2023-11-16T01:27:17.561Z,0.40
2023-11-16T01:29:45.725Z,0.43
2023-11-16T01:32:14.172Z,0.45
2023-11-16T01:34:43.887Z,0.30
2023-11-16T01:37:11.825Z,0.60
2023-11-16T01:39:42.448Z,0.45
2023-11-16T01:42:11.334Z,0.73
2023-11-16T01:44:40.207Z,0.40
2023-11-16T01:47:10.443Z,0.35
2023-11-16T01:49:37.840Z,0.30
2023-11-16T01:52:05.692Z,0.43
2023-11-16T01:54:35.434Z,0.65
2023-11-16T01:57:02.852Z,0.40
2023-11-16T01:59:29.854Z,0.40
2023-11-16T02:01:58.555Z,0.45
2023-11-16T02:04:25.588Z,0.40
2023-11-16T02:06:54.856Z,0.50
2023-11-16T02:09:22.931Z,0.40
2023-11-16T02:11:50.194Z,0.60
2023-11-16T02:14:17.150Z,0.38
2023-11-16T02:16:44.137Z,0.77
2023-11-16T02:19:32.769Z,0.77
2023-11-16T02:22:00.612Z,0.40
2023-11-16T02:24:28.958Z,0.60
2023-11-16T02:26:56.163Z,0.40
2023-11-16T02:29:23.330Z,0.45
2023-11-16T02:31:50.259Z,0.40
2023-11-16T02:34:17.225Z,0.35
2023-11-16T02:36:44.178Z,0.60
2023-11-16T02:39:15.028Z,0.40
2023-11-16T02:41:42.702Z,0.60
2023-11-16T02:44:09.628Z,0.50
2023-11-16T02:46:36.860Z,0.47
2023-11-16T02:49:03.840Z,0.47
2023-11-16T02:51:32.810Z,0.45
2023-11-16T02:54:03.950Z,0.73
2023-11-16T02:56:30.819Z,0.45
2023-11-16T02:58:57.712Z,0.30
2023-11-16T03:01:25.116Z,0.43
2023-11-16T03:03:51.935Z,0.47
2023-11-16T03:06:18.829Z,0.45
2023-11-16T03:08:47.117Z,0.40
2023-11-16T03:11:15.337Z,0.30
2023-11-16T03:13:45.468Z,0.22
2023-11-16T03:16:12.444Z,0.50
2023-11-16T03:18:40.830Z,0.60
2023-11-16T03:21:08.014Z,0.40
2023-11-16T03:23:37.591Z,0.50
2023-11-16T03:26:07.441Z,0.40
2023-11-16T03:28:37.174Z,0.40
2023-11-16T03:31:07.132Z,0.50
2023-11-16T03:33:34.216Z,0.60
2023-11-16T03:36:01.294Z,0.45
2023-11-16T03:38:28.514Z,0.50
2023-11-16T03:40:55.328Z,0.60
2023-11-16T03:43:23.907Z,0.60
2023-11-16T03:45:50.761Z,0.50
2023-11-16T03:48:17.727Z,0.60
2023-11-16T03:50:44.629Z,0.55
2023-11-16T03:53:11.810Z,0.40
2023-11-16T03:55:41.160Z,0.65
2023-11-16T03:58:09.116Z,0.80
2023-11-16T04:00:35.879Z,0.57
2023-11-16T04:03:04.484Z,0.35
2023-11-16T04:05:34.303Z,0.32
2023-11-16T04:08:01.318Z,0.68
2023-11-16T04:10:28.229Z,0.57
2023-11-16T04:12:55.068Z,1.70
2023-11-16T04:15:21.891Z,0.47
2023-11-16T04:17:49.189Z,0.65
2023-11-16T04:20:16.178Z,0.50
2023-11-16T04:22:43.000Z,0.52
2023-11-16T04:25:24.489Z,0.73
2023-11-16T04:27:51.419Z,0.40
2023-11-16T04:30:19.731Z,0.57
2023-11-16T04:32:46.812Z,0.70
2023-11-16T04:35:16.986Z,0.70
2023-11-16T04:37:43.892Z,0.50
2023-11-16T04:40:11.295Z,0.50
2023-11-16T04:42:38.096Z,0.50
2023-11-16T04:45:05.413Z,0.55
2023-11-16T04:47:32.365Z,0.40
2023-11-16T04:49:59.226Z,0.82
2023-11-16T04:52:30.118Z,0.30
2023-11-16T04:54:57.404Z,0.47
2023-11-16T04:57:24.238Z,0.50
2023-11-16T04:59:51.071Z,0.40
2023-11-16T05:02:17.884Z,0.50
2023-11-16T05:04:45.512Z,0.52
2023-11-16T05:07:13.776Z,0.47
2023-11-16T05:09:40.857Z,0.38
2023-11-16T05:12:07.880Z,0.60
2023-11-16T05:14:34.688Z,0.93
2023-11-16T05:17:02.489Z,0.70
2023-11-16T05:19:29.164Z,0.60
2023-11-16T05:21:56.169Z,0.95
2023-11-16T05:24:24.453Z,0.60
2023-11-16T05:26:51.465Z,0.60
2023-11-16T05:29:18.403Z,0.80
2023-11-16T05:31:49.402Z,0.63
2023-11-16T05:34:16.567Z,0.90
2023-11-16T05:36:43.317Z,1.10
2023-11-16T05:39:10.849Z,0.80
2023-11-16T05:41:37.687Z,1.17
2023-11-16T05:44:05.061Z,0.98
2023-11-16T05:46:33.444Z,0.70
2023-11-16T05:49:00.409Z,0.85
2023-11-16T05:51:27.322Z,0.95
2023-11-16T05:53:54.137Z,0.93
2023-11-16T05:56:22.049Z,0.95
2023-11-16T05:58:50.484Z,1.10
2023-11-16T06:01:19.148Z,0.88
2023-11-16T06:03:45.959Z,1.00
2023-11-16T06:06:13.403Z,1.30
2023-11-16T06:08:41.191Z,1.00
2023-11-16T06:11:09.502Z,0.75
2023-11-16T06:13:36.919Z,0.70
2023-11-16T06:16:03.831Z,0.88
2023-11-16T06:18:30.705Z,0.95
2023-11-16T06:20:57.520Z,1.00
2023-11-16T06:23:24.342Z,1.15
2023-11-16T06:25:51.081Z,0.90
2023-11-16T06:28:17.863Z,1.13
2023-11-16T06:30:45.210Z,0.93
2023-11-16T06:33:12.092Z,1.10
2023-11-16T06:35:39.008Z,1.20
2023-11-16T06:38:10.563Z,1.02
2023-11-16T06:40:38.234Z,0.75
2023-11-16T06:43:05.185Z,1.15
2023-11-16T06:45:39.137Z,1.02
2023-11-16T06:48:07.212Z,1.60
2023-11-16T06:50:35.416Z,1.27
2023-11-16T06:53:07.365Z,1.30
2023-11-16T06:55:34.193Z,1.23
2023-11-16T06:58:01.137Z,1.30
2023-11-16T07:00:28.739Z,1.10
2023-11-16T07:02:56.055Z,1.02
2023-11-16T07:05:23.298Z,1.13
2023-11-16T07:07:50.621Z,0.80
2023-11-16T07:10:17.451Z,1.17
2023-11-16T07:12:44.421Z,1.35
2023-11-16T07:15:11.709Z,1.10
2023-11-16T07:17:39.524Z,1.20
2023-11-16T07:20:07.246Z,1.80
2023-11-16T07:22:34.174Z,1.60
2023-11-16T07:25:05.744Z,1.15
2023-11-16T07:27:33.440Z,1.27
2023-11-16T07:30:00.284Z,1.55
2023-11-16T07:32:27.044Z,1.25
2023-11-16T07:34:53.859Z,1.13
2023-11-16T07:37:20.722Z,1.10
2023-11-16T07:39:47.549Z,1.25
2023-11-16T07:42:15.182Z,1.33
2023-11-16T07:44:45.392Z,1.20
2023-11-16T07:47:12.277Z,2.28
2023-11-16T07:49:39.890Z,1.30
2023-11-16T07:52:08.093Z,1.25
2023-11-16T07:54:35.738Z,1.70
2023-11-16T07:57:04.288Z,1.40
2023-11-16T07:59:36.238Z,1.35
2023-11-16T08:02:03.394Z,1.42
2023-11-16T08:04:33.443Z,2.08
2023-11-16T08:07:01.978Z,1.52
2023-11-16T08:09:31.041Z,1.38
2023-11-16T08:11:58.940Z,1.58
2023-11-16T08:14:27.134Z,1.95
2023-11-16T08:16:58.713Z,1.30
2023-11-16T08:19:33.172Z,1.10
2023-11-16T08:22:00.923Z,1.55
2023-11-16T08:24:28.013Z,1.58
2023-11-16T08:26:57.976Z,1.27
2023-11-16T08:29:25.225Z,1.30
2023-11-16T08:31:58.326Z,1.40
2023-11-16T08:34:28.228Z,1.20
2023-11-16T08:36:55.159Z,1.45
2023-11-16T08:39:22.032Z,1.30
2023-11-16T08:41:50.205Z,1.55
2023-11-16T08:44:19.898Z,1.40
2023-11-16T08:46:53.883Z,1.85
2023-11-16T08:49:24.553Z,1.48
2023-11-16T08:52:01.062Z,1.50
2023-11-16T08:54:30.051Z,1.38
2023-11-16T08:56:59.198Z,1.40
2023-11-16T08:59:27.867Z,1.48
2023-11-16T09:01:56.344Z,1.60
2023-11-16T09:04:25.490Z,1.35
2023-11-16T09:06:52.735Z,1.48
2023-11-16T09:09:37.047Z,1.35
2023-11-16T09:12:07.087Z,1.55
2023-11-16T09:14:36.887Z,1.20
2023-11-16T09:19:34.369Z,1.40
2023-11-16T09:22:04.292Z,1.30
2023-11-16T09:24:31.422Z,1.33
2023-11-16T09:26:59.389Z,1.40
2023-11-16T09:29:29.699Z,1.42
2023-11-16T09:31:56.523Z,1.30
2023-11-16T09:34:23.879Z,1.42
2023-11-16T09:36:51.607Z,1.88
2023-11-16T09:39:18.498Z,1.27
2023-11-16T09:41:50.593Z,1.38
2023-11-16T09:44:18.886Z,1.40
2023-11-16T09:46:49.006Z,1.63
2023-11-16T09:49:18.864Z,1.50
2023-11-16T09:51:46.822Z,1.48
2023-11-16T09:54:14.088Z,1.73
2023-11-16T09:56:43.174Z,1.38
2023-11-16T09:59:28.972Z,2.00
2023-11-16T10:02:11.684Z,1.80
2023-11-16T10:04:43.255Z,1.42
2023-11-16T10:07:18.040Z,1.30
2023-11-16T10:09:45.438Z,1.27
2023-11-16T10:12:12.802Z,1.05
2023-11-16T10:14:42.155Z,1.33
2023-11-16T10:17:09.015Z,1.27
2023-11-16T10:19:36.062Z,1.20
2023-11-16T10:22:03.032Z,1.10
2023-11-16T10:24:34.843Z,1.10
2023-11-16T10:27:02.927Z,1.10
2023-11-16T10:29:29.864Z,1.60
2023-11-16T10:31:58.236Z,1.17
2023-11-16T10:34:26.138Z,1.77
2023-11-16T10:36:56.848Z,1.52
2023-11-16T10:39:26.551Z,1.10
2023-11-16T10:41:53.798Z,1.50
2023-11-16T10:44:24.483Z,1.45
2023-11-16T10:46:52.771Z,1.30
2023-11-16T10:52:22.433Z,1.50
2023-11-16T11:24:16.510Z,1.23
2023-11-16T11:44:38.001Z,1.20
2023-11-16T11:47:40.746Z,0.85
2023-11-16T11:50:49.648Z,1.33
2023-11-16T11:53:18.677Z,1.17
2023-11-16T11:55:48.446Z,1.30
2023-11-16T11:58:19.401Z,1.30
2023-11-16T12:00:50.397Z,1.35
2023-11-16T12:03:18.658Z,1.02
2023-11-16T12:05:49.239Z,0.90
2023-11-16T12:08:16.194Z,1.17
2023-11-16T12:10:43.390Z,1.33
2023-11-16T12:13:10.820Z,1.10
2023-11-16T12:15:37.959Z,1.60
2023-11-16T12:18:09.219Z,1.35
2023-11-16T12:20:38.099Z,0.88
2023-11-16T12:23:06.997Z,1.20
2023-11-16T12:25:37.461Z,1.20
2023-11-16T12:30:52.250Z,1.30
2023-11-16T12:37:05.497Z,1.40
2023-11-16T12:39:33.225Z,1.50
2023-11-16T12:42:08.884Z,0.90
2023-11-16T12:44:35.694Z,1.50
2023-11-16T12:47:03.686Z,1.63
2023-11-16T12:49:30.689Z,1.48
2023-11-16T12:51:58.130Z,1.70
2023-11-16T12:54:25.783Z,1.38
2023-11-16T12:56:54.338Z,1.17
2023-11-16T12:59:23.457Z,1.33
2023-11-16T13:01:52.925Z,1.33
2023-11-16T13:13:23.377Z,1.58
2023-11-16T13:15:57.336Z,1.30
2023-11-16T13:18:25.947Z,1.10
2023-11-16T13:20:52.736Z,1.10
2023-11-16T13:23:19.638Z,1.75
2023-11-16T13:25:46.547Z,1.17
2023-11-16T13:28:13.436Z,1.50
2023-11-16T13:30:41.496Z,1.75
2023-11-16T13:33:08.794Z,1.30
2023-11-16T13:35:36.526Z,1.30
2023-11-16T13:38:03.465Z,2.03
2023-11-16T13:40:30.610Z,1.50
2023-11-16T13:43:31.854Z,1.60
2023-11-16T13:46:00.276Z,1.60
2023-11-16T13:48:27.168Z,1.15
2023-11-16T13:50:56.692Z,1.70
2023-11-16T13:53:23.568Z,1.42
2023-11-16T13:55:50.436Z,1.35
2023-11-16T13:58:17.210Z,1.42
2023-11-16T14:00:45.688Z,1.65
2023-11-16T14:03:14.310Z,1.00
2023-11-16T14:05:42.902Z,0.60
2023-11-16T14:08:09.838Z,1.20
2023-11-16T14:10:36.756Z,0.77
2023-11-16T14:13:03.874Z,0.80
2023-11-16T14:15:31.074Z,0.75
2023-11-16T14:17:57.956Z,0.77
2023-11-16T14:20:25.009Z,0.93
2023-11-16T14:22:52.054Z,1.35
2023-11-16T14:25:27.911Z,1.23
2023-11-16T14:28:01.617Z,1.23
2023-11-16T14:30:28.437Z,0.85
2023-11-16T14:32:55.310Z,1.27
2023-11-16T14:35:23.951Z,0.93
2023-11-16T14:37:51.821Z,1.92
2023-11-16T14:40:18.579Z,1.15
2023-11-16T14:42:46.643Z,1.20
2023-11-16T14:45:13.471Z,1.30
2023-11-16T14:47:41.142Z,0.93
2023-11-16T14:50:14.399Z,1.00
2023-11-16T14:52:43.703Z,1.38
2023-11-16T14:55:11.184Z,1.10
2023-11-16T14:57:41.592Z,0.90
2023-11-16T15:00:09.885Z,1.02
2023-11-16T15:02:37.633Z,1.02
2023-11-16T15:05:09.959Z,1.30
2023-11-16T15:07:39.574Z,2.08
2023-11-16T15:10:12.396Z,1.45
2023-11-16T15:15:07.031Z,1.60
2023-11-16T15:17:33.817Z,1.60
2023-11-16T15:20:09.192Z,1.65
2023-11-16T15:22:48.196Z,1.10
2023-11-16T15:25:18.098Z,1.50
2023-11-16T15:27:44.917Z,1.30
2023-11-16T15:30:14.791Z,1.40
2023-11-16T15:32:42.039Z,1.50
2023-11-16T15:35:10.502Z,1.77
2023-11-16T15:37:37.562Z,1.40
2023-11-16T15:40:06.391Z,1.40
2023-11-16T15:42:34.873Z,1.60
2023-11-16T15:45:02.493Z,2.00
2023-11-16T15:47:29.523Z,1.48
2023-11-16T15:49:56.524Z,1.65
2023-11-16T15:52:24.444Z,1.67
2023-11-16T15:54:52.605Z,1.48
2023-11-16T15:57:30.133Z,1.65
2023-11-16T16:00:39.234Z,1.60
2023-11-16T16:03:23.977Z,1.60
2023-11-16T16:05:55.578Z,1.80
2023-11-16T16:12:12.988Z,1.88
2023-11-16T16:17:26.898Z,1.00
2023-11-16T16:23:10.800Z,1.40
2023-11-16T16:25:49.558Z,1.33
2023-11-16T16:31:28.806Z,1.10
2023-11-16T16:36:39.351Z,1.27
2023-11-16T16:39:10.927Z,0.90
2023-11-16T16:41:43.837Z,1.00
2023-11-16T16:44:14.170Z,0.90
2023-11-16T16:46:44.243Z,1.15
2023-11-16T16:49:19.196Z,1.23
2023-11-16T16:51:46.641Z,1.30
2023-11-16T16:54:15.510Z,1.52
2023-11-16T16:56:44.987Z,1.70
2023-11-16T16:59:12.132Z,2.05
2023-11-16T17:01:39.268Z,1.88
2023-11-16T17:04:07.519Z,1.70
2023-11-16T17:06:34.705Z,2.30
2023-11-16T17:09:03.444Z,1.88
2023-11-16T17:11:30.433Z,1.80
2023-11-16T17:13:57.770Z,2.60
2023-11-16T17:16:27.792Z,2.40
2023-11-16T17:19:03.051Z,2.75
2023-11-16T17:21:30.047Z,2.45
2023-11-16T17:23:56.965Z,2.22
2023-11-16T17:26:23.864Z,1.70
2023-11-16T17:28:51.290Z,1.98
2023-11-16T17:31:19.196Z,1.85
2023-11-16T17:33:46.778Z,2.10
2023-11-16T17:36:14.089Z,1.90
2023-11-16T17:38:51.026Z,2.22
2023-11-16T17:44:43.289Z,2.28
2023-11-16T17:47:23.305Z,1.60
2023-11-16T17:53:28.148Z,2.55
2023-11-16T18:17:08.138Z,2.60
2023-11-16T18:19:37.110Z,2.40
2023-11-16T18:24:57.867Z,2.55
2023-11-16T18:27:39.095Z,1.95
2023-11-16T18:30:13.336Z,2.17
2023-11-16T18:32:51.339Z,1.88
2023-11-16T18:35:29.120Z,1.50
2023-11-16T18:43:36.768Z,1.50
2023-11-16T18:46:09.298Z,1.50
2023-11-16T18:48:41.994Z,1.50
2023-11-16T18:53:57.958Z,1.27
2023-11-16T18:59:15.521Z,1.40
2023-11-16T19:01:52.536Z,1.10
2023-11-16T19:09:35.242Z,1.27
2023-11-16T19:13:09.009Z,1.10
2023-11-16T19:18:20.064Z,1.10
2023-11-16T19:21:05.411Z,1.08
2023-11-16T19:23:58.005Z,1.35
2023-11-16T19:26:33.967Z,0.93
2023-11-16T19:29:03.266Z,1.55
2023-11-16T19:35:06.222Z,1.55
2023-11-16T19:37:34.301Z,1.08
2023-11-16T19:41:00.410Z,1.50
2023-11-16T19:43:42.838Z,1.05
2023-11-16T19:46:26.029Z,1.70
2023-11-16T19:48:52.884Z,1.10
2023-11-16T19:51:19.941Z,1.30
2023-11-16T19:53:55.961Z,1.40
2023-11-16T19:56:26.639Z,1.25
2023-11-16T19:58:59.812Z,1.08
2023-11-16T20:01:30.147Z,1.20
2023-11-16T20:03:57.528Z,1.45
2023-11-16T20:06:26.221Z,1.00
2023-11-16T20:08:56.106Z,1.20
2023-11-16T20:11:23.805Z,1.15
2023-11-16T20:13:51.968Z,1.10
2023-11-16T20:16:20.393Z,1.10
2023-11-16T20:18:47.559Z,1.48
2023-11-16T20:21:14.807Z,1.23
2023-11-16T20:23:44.443Z,1.40
2023-11-16T20:26:14.621Z,1.17
2023-11-16T20:28:42.553Z,1.48
2023-11-16T20:31:10.032Z,1.52
2023-11-16T20:33:36.921Z,1.45
2023-11-16T20:36:05.099Z,1.35
2023-11-16T20:38:34.268Z,1.80
2023-11-16T20:41:02.434Z,1.45
2023-11-16T20:43:29.967Z,1.40
2023-11-16T20:46:00.807Z,1.40
2023-11-16T20:48:34.681Z,1.30
2023-11-16T20:51:06.105Z,1.45
2023-11-16T20:53:33.074Z,1.48
2023-11-16T20:55:59.935Z,1.48
2023-11-16T20:58:26.989Z,1.73
2023-11-16T21:00:53.992Z,1.83
2023-11-16T21:03:21.273Z,1.40
2023-11-16T21:05:49.487Z,1.48
2023-11-16T21:08:20.274Z,1.63
2023-11-16T21:10:55.179Z,1.20
2023-11-16T21:13:22.198Z,1.38
2023-11-16T21:15:49.226Z,1.80
2023-11-16T21:18:16.377Z,1.60
2023-11-16T21:20:43.617Z,1.25
2023-11-16T21:23:10.616Z,1.92
2023-11-16T21:25:37.634Z,1.83
2023-11-16T21:28:06.174Z,1.80
2023-11-16T21:30:33.587Z,1.80
2023-11-16T21:33:01.878Z,1.50
2023-11-16T21:35:29.055Z,1.50
2023-11-16T21:38:04.101Z,1.90
2023-11-16T21:40:32.410Z,1.90
2023-11-16T21:42:59.336Z,1.55
2023-11-16T21:45:26.104Z,1.60
2023-11-16T21:47:53.741Z,1.65
2023-11-16T21:50:22.542Z,1.80
2023-11-16T21:52:49.395Z,1.38
2023-11-16T21:55:16.680Z,1.65
2023-11-16T21:57:43.954Z,1.67
2023-11-16T22:00:12.601Z,1.58
2023-11-16T22:02:39.523Z,1.50
2023-11-16T22:05:24.731Z,1.33
2023-11-16T22:07:51.509Z,1.70
2023-11-16T22:10:24.245Z,1.67
2023-11-16T22:12:56.143Z,1.95
2023-11-16T22:15:27.753Z,2.17
2023-11-16T22:18:02.701Z,2.17
2023-11-16T22:20:29.674Z,2.60
2023-11-16T22:22:59.121Z,2.35
2023-11-16T22:25:33.448Z,2.90
2023-11-16T22:28:00.838Z,2.65
2023-11-16T22:30:34.177Z,2.30
2023-11-16T22:33:06.077Z,2.15
2023-11-16T22:35:38.753Z,1.92
2023-11-16T22:38:06.195Z,1.88
2023-11-16T22:40:33.085Z,2.30
2023-11-16T22:43:00.789Z,2.00
2023-11-16T22:48:10.969Z,1.92
2023-11-16T22:50:38.999Z,2.40
2023-11-16T22:53:05.822Z,1.83
2023-11-16T22:55:37.029Z,2.15
2023-11-16T22:58:35.066Z,2.33
2023-11-16T23:01:24.090Z,2.20
2023-11-16T23:03:52.579Z,2.17
2023-11-16T23:06:19.726Z,2.50
2023-11-16T23:08:46.732Z,2.17
2023-11-16T23:11:16.248Z,2.60
2023-11-16T23:13:44.669Z,2.58
2023-11-16T23:16:12.763Z,2.80
2023-11-16T23:18:39.642Z,2.70
2023-11-16T23:21:09.461Z,2.72
2023-11-16T23:23:36.297Z,2.50
2023-11-16T23:26:04.867Z,2.72
2023-11-16T23:28:34.909Z,2.63
2023-11-16T23:31:06.501Z,2.30
2023-11-16T23:33:37.995Z,2.65
2023-11-16T23:36:05.145Z,2.15
2023-11-16T23:38:32.721Z,2.60
2023-11-16T23:41:01.697Z,2.42
2023-11-16T23:43:28.945Z,1.98
2023-11-16T23:45:57.152Z,2.05
2023-11-16T23:48:23.970Z,1.88
2023-11-16T23:50:50.719Z,1.52
2023-11-16T23:53:19.367Z,2.13
2023-11-16T23:55:47.214Z,1.75
2023-11-16T23:58:14.265Z,1.77
